Charleston, Kentucky
Current Conditions -  °F | °C
As of 9:35 PM on Monday 20 Oct 2014 (Local Time) from K2I0 Reporting Station
Scattered Clouds Scattered Clouds  
Wind Chill: 61°   Ceiling: Unl
Heat Index: 61°   Visibility: 10mi
Dew Point: 55°   Wind: 6mph
Humidity: 81%   Direction: 270°W
Pressure: 29.98"   Gusts: NA
Location:  37.196°N, 87.6728°W
Report Text: K2I0 210235Z AUTO 27005KT 10SM SCT070 16/13 A2998 RMK AO2 T01630130
Loading
Personal Weather Stations






























Interactive Weather Map
Tropical Storm Tracking
New forecast layout! Learn more

10-Day Weather Forecast

Advertisements
Track Severe Weather on mobile